• Join FlightAware (Why Join?)
  • Login
  • US Flag 
07:26PM EDT


 

Airport Tracker/Info


-or-


 

Live Flight TrackerFlight Track Log ✈ DAL1744 ✈ 30-Jun-2012 ✈ KDTW - KDCA

Flight Track Log - Related Links

Times and Time Zones

All times are in EDT time to prevent confusion due to time zone crossing. See the DAL1744 flight status page for this flight to view local times or setup timezone preferences in your user account.

Time Position Orientation Groundspeed Altitude Reporting Facility
EDT Latitude Longitude Course Direction KTS MPH feet Rate Location/Type
10:36AM 42.2036 -83.3536 192° South 155 178 1,300  Level FAA TRACON SMA TRACON (SMA)
10:36AM 42.1722 -83.3625 189° South 185 213 2,800 2,100 Climbing FAA TRACON SMA TRACON (SMA)
10:37AM 42.1306 -83.3717 190° South 241 277 4,100 2,460 Climbing FAA TRACON SMA TRACON (SMA)
10:38AM 42.0808 -83.3836 191° South 277 319 6,100 3,120 Climbing FAA TRACON SMA TRACON (SMA)
10:38AM 42.0297 -83.3969 157° South 285 328 8,300 2,760 Climbing FAA TRACON SMA TRACON (SMA)
10:39AM 41.9814 -83.3692 104° East 317 365 9,800 1,200 Climbing FAA TRACON SMA TRACON (SMA)
10:40AM 41.9650 -83.2806 76° East 383 441 10,000 120 Climbing FAA TRACON SMA TRACON (SMA)
10:40AM 41.9828 -83.1867 77° East 382 440 10,000 780 Level FAA TRACON SMA TRACON (SMA)
10:41AM 41.9986 -83.0975 79° East 386 444 11,100 2,160 Climbing FAA TRACON SMA TRACON (SMA)
10:42AM 42.0133 -82.9989 79° East 393 452 12,900 2,580 Climbing FAA TRACON SMA TRACON (SMA)
10:42AM 42.0283 -82.8942 79° East 412 474 14,600 1,440 Climbing FAA TRACON SMA TRACON (SMA)
10:43AM 42.0428 -82.7944 79° East 421 484 14,900 300 Climbing FAA TRACON SMA TRACON (SMA)
10:44AM 42.0581 -82.6908 79° East 424 488 15,000 60 Climbing FAA TRACON SMA TRACON (SMA)
10:44AM 42.0736 -82.5839 82° East 422 486 15,000  Level FAA TRACON SMA TRACON (SMA)
10:45AM 42.0839 -82.4869 97° East 426 490 15,000 720 Level FAA TRACON SMA TRACON (SMA)
10:46AM 42.0742 -82.3761 101° East 433 498 16,000 1,980 Climbing FAA TRACON SMA TRACON (SMA)
10:46AM 42.0586 -82.2642 102° East 436 502 17,700 1,860 Climbing FAA TRACON SMA TRACON (SMA)
10:47AM 42.0508 -82.2136 109° East 443 510 18,500 1,980 Climbing FAA TRACON SMA TRACON (SMA)
10:48AM 42.0150 -82.0728 141° Southeast 448 516 20,200 2,460 Climbing Cleveland Center
10:49AM 41.9142 -81.9617 145° Southeast 448 516 22,400 2,040 Climbing Cleveland Center
10:50AM 41.8028 -81.8561 146° Southeast 471 542 24,300 1,800 Climbing Cleveland Center
10:51AM 41.6789 -81.7453 148° Southeast 488 562 26,100 1,560 Climbing Cleveland Center
10:52AM 41.5611 -81.6458 148° Southeast 500 575 27,500 1,620 Climbing Cleveland Center
10:53AM 41.4284 -81.5365 148° Southeast 506 582 29,700 1,860 Climbing FlightAware
10:54AM 41.3353 -81.4597 148° Southeast 513 590 31,300 1,740 Climbing Cleveland Center
10:55AM 41.2153 -81.3589 148° Southeast 513 590 32,900 1,800 Climbing Cleveland Center
10:56AM 41.0992 -81.2636 148° Southeast 508 585 35,000 1,500 Climbing Cleveland Center
10:57AM 40.9850 -81.1689 148° Southeast 492 566 36,000 480 Climbing Cleveland Center
10:58AM 40.8686 -81.0744 148° Southeast 486 559 36,000 60 Level Cleveland Center
10:59AM 40.7586 -80.9833 148° Southeast 486 559 36,200 900 Climbing Cleveland Center
11:00AM 40.6464 -80.8897 148° Southeast 486 559 37,800 1,260 Climbing Cleveland Center
11:01AM 40.5339 -80.7989 148° Southeast 481 554 38,800 420 Climbing Cleveland Center
11:02AM 40.3351 -80.6382 149° Southeast 482 555 39,000 60 Climbing FlightAware
11:04AM 40.1775 -80.5153 149° Southeast 489 563 39,000  Level Cleveland Center
11:05AM 40.0608 -80.4231 149° Southeast 489 563 39,000  Level Cleveland Center
11:06AM 39.9419 -80.3286 148° Southeast 494 568 39,000  Level Cleveland Center
11:07AM 39.8269 -80.2344 150° Southeast 494 568 39,000 -420 Level Cleveland Center
11:08AM 39.7142 -80.1486 149° Southeast 494 568 38,200 -1,020 Descending Cleveland Center
11:09AM 39.6011 -80.0606 149° Southeast 489 563 37,000 -1,680 Descending Cleveland Center
11:09AM 39.5369 -80.0103 149° Southeast 471 542 35,400 -2,580 Descending Washington Center
11:10AM 39.4233 -79.9225 145° Southeast 466 536 32,500 -3,000 Descending Washington Center
11:11AM 39.3164 -79.8250 103° East 466 536 29,500 -1,800 Descending Washington Center
11:12AM 39.2847 -79.6542 96° East 455 524 29,000 -300 Descending Washington Center
11:13AM 39.2697 -79.4736 96° East 461 531 29,000  Level Washington Center
11:14AM 39.2550 -79.2853 99° East 494 568 29,000 -540 Level Washington Center
11:15AM 39.2311 -79.1017 96° East 512 589 28,000 -2,340 Descending Washington Center
11:16AM 39.2156 -78.9189 97° East 517 595 24,500 -3,300 Descending Washington Center
11:17AM 39.1994 -78.7386 98° East 517 595 21,500 -2,940 Descending Washington Center
11:18AM 39.1811 -78.5664 97° East 506 582 18,600 -2,820 Descending Washington Center
11:19AM 39.1642 -78.3944 110° East 494 568 15,800 -1,800 Descending Washington Center
11:20AM 39.1200 -78.2375 116° Southeast 468 539 15,000 -1,260 Descending Washington Center
11:21AM 39.0647 -78.0886 116° Southeast 462 532 13,400 -1,800 Descending Washington Center
11:22AM 39.0114 -77.9450 115° Southeast 451 519 11,500 -1,200 Descending Washington Center
11:23AM 38.9597 -77.8019 106° East 408 470 11,000 -900 Descending Washington Center
11:24AM 38.9308 -77.6731 88° East 390 449 9,800 -1,380 Descending Washington Center
11:25AM 38.9333 -77.5833 90° East 330 380 8,700 -1,080 Descending Potomac TRACON
11:26AM 38.9333 -77.4667 102° East 313 360 8,000 -480 Descending Potomac TRACON
11:27AM 38.9167 -77.3667 100° East 312 359 7,800 -780 Descending Potomac TRACON
11:28AM 38.9000 -77.2500 113° Southeast 308 354 6,500 -1,020 Descending Potomac TRACON
11:29AM 38.8667 -77.1500 159° South 299 344 5,800 -960 Descending Potomac TRACON
11:30AM 38.8000 -77.1167 169° South 273 314 4,600 -1,260 Descending Potomac TRACON
11:31AM 38.7333 -77.1000 113° Southeast 230 265 3,300 -1,440 Descending Potomac TRACON
11:32AM 38.7167 -77.0500 15° North 203 234 1,700 -900 Descending Potomac TRACON
11:33AM 38.7667 -77.0333 360° North 137 158 1,600 -420 Descending Potomac TRACON
11:34AM 38.8000 -77.0333 360° North 134 154 900 -720 Descending Potomac TRACON